sensor_id;sensor_type;location;lat;lon;timestamp;P1;durP1;ratioP1;P2;durP2;ratioP2
72493;SDS011;60520;49.182;-0.348;2023-04-24T00:00:19;1.95;;;0.80;;
72493;SDS011;60520;49.182;-0.348;2023-04-24T00:02:46;3.00;;;0.98;;
72493;SDS011;60520;49.182;-0.348;2023-04-24T00:05:14;1.52;;;0.70;;
72493;SDS011;60520;49.182;-0.348;2023-04-24T00:07:42;2.33;;;0.90;;
72493;SDS011;60520;49.182;-0.348;2023-04-24T00:10:09;2.03;;;0.90;;
72493;SDS011;60520;49.182;-0.348;2023-04-24T00:12:37;2.22;;;0.70;;
72493;SDS011;60520;49.182;-0.348;2023-04-24T00:15:05;1.38;;;0.77;;
72493;SDS011;60520;49.182;-0.348;2023-04-24T00:17:32;1.50;;;0.70;;
72493;SDS011;60520;49.182;-0.348;2023-04-24T00:19:59;1.73;;;0.80;;
72493;SDS011;60520;49.182;-0.348;2023-04-24T00:22:29;1.58;;;0.80;;
72493;SDS011;60520;49.182;-0.348;2023-04-24T00:24:57;1.23;;;0.70;;
72493;SDS011;60520;49.182;-0.348;2023-04-24T00:27:24;1.35;;;0.70;;
72493;SDS011;60520;49.182;-0.348;2023-04-24T00:29:52;1.90;;;0.77;;
72493;SDS011;60520;49.182;-0.348;2023-04-24T00:32:19;1.48;;;0.80;;
72493;SDS011;60520;49.182;-0.348;2023-04-24T00:34:46;2.10;;;0.73;;
72493;SDS011;60520;49.182;-0.348;2023-04-24T00:37:13;2.03;;;0.77;;
72493;SDS011;60520;49.182;-0.348;2023-04-24T00:39:40;1.83;;;0.70;;
72493;SDS011;60520;49.182;-0.348;2023-04-24T00:42:08;1.48;;;0.77;;
72493;SDS011;60520;49.182;-0.348;2023-04-24T00:44:35;1.88;;;0.80;;
72493;SDS011;60520;49.182;-0.348;2023-04-24T00:47:03;1.73;;;0.82;;
72493;SDS011;60520;49.182;-0.348;2023-04-24T00:49:30;1.63;;;0.80;;
72493;SDS011;60520;49.182;-0.348;2023-04-24T00:51:57;2.45;;;0.80;;
72493;SDS011;60520;49.182;-0.348;2023-04-24T00:54:24;2.58;;;0.80;;
72493;SDS011;60520;49.182;-0.348;2023-04-24T00:56:52;2.90;;;0.90;;
72493;SDS011;60520;49.182;-0.348;2023-04-24T00:59:19;1.17;;;0.70;;
72493;SDS011;60520;49.182;-0.348;2023-04-24T01:01:46;1.23;;;0.80;;
72493;SDS011;60520;49.182;-0.348;2023-04-24T01:04:15;2.05;;;0.90;;
72493;SDS011;60520;49.182;-0.348;2023-04-24T01:06:43;1.05;;;0.68;;
72493;SDS011;60520;49.182;-0.348;2023-04-24T01:09:11;0.73;;;0.60;;
72493;SDS011;60520;49.182;-0.348;2023-04-24T01:11:39;1.58;;;0.88;;
72493;SDS011;60520;49.182;-0.348;2023-04-24T01:14:08;1.50;;;0.80;;
72493;SDS011;60520;49.182;-0.348;2023-04-24T01:16:35;1.95;;;0.80;;
72493;SDS011;60520;49.182;-0.348;2023-04-24T01:19:03;1.25;;;0.82;;
72493;SDS011;60520;49.182;-0.348;2023-04-24T01:21:31;1.85;;;0.80;;
72493;SDS011;60520;49.182;-0.348;2023-04-24T01:24:01;2.85;;;0.80;;
72493;SDS011;60520;49.182;-0.348;2023-04-24T01:26:28;2.40;;;0.63;;
72493;SDS011;60520;49.182;-0.348;2023-04-24T01:28:55;1.58;;;0.80;;
72493;SDS011;60520;49.182;-0.348;2023-04-24T01:31:22;1.55;;;0.90;;
72493;SDS011;60520;49.182;-0.348;2023-04-24T01:33:49;1.25;;;0.90;;
72493;SDS011;60520;49.182;-0.348;2023-04-24T01:36:17;1.42;;;0.90;;
72493;SDS011;60520;49.182;-0.348;2023-04-24T01:38:44;1.92;;;0.77;;
72493;SDS011;60520;49.182;-0.348;2023-04-24T01:41:13;1.25;;;0.70;;
72493;SDS011;60520;49.182;-0.348;2023-04-24T01:43:40;1.55;;;0.70;;
72493;SDS011;60520;49.182;-0.348;2023-04-24T01:46:07;1.98;;;0.85;;
72493;SDS011;60520;49.182;-0.348;2023-04-24T01:48:34;1.45;;;0.65;;
72493;SDS011;60520;49.182;-0.348;2023-04-24T01:51:02;1.98;;;0.80;;
72493;SDS011;60520;49.182;-0.348;2023-04-24T01:53:29;2.17;;;0.95;;
72493;SDS011;60520;49.182;-0.348;2023-04-24T01:55:56;2.20;;;1.00;;
72493;SDS011;60520;49.182;-0.348;2023-04-24T01:58:25;1.10;;;0.70;;
72493;SDS011;60520;49.182;-0.348;2023-04-24T02:00:53;2.17;;;0.90;;
72493;SDS011;60520;49.182;-0.348;2023-04-24T02:03:22;1.75;;;0.75;;
72493;SDS011;60520;49.182;-0.348;2023-04-24T02:05:49;1.85;;;0.88;;
72493;SDS011;60520;49.182;-0.348;2023-04-24T02:08:16;1.33;;;0.70;;
72493;SDS011;60520;49.182;-0.348;2023-04-24T02:10:44;1.63;;;0.95;;
72493;SDS011;60520;49.182;-0.348;2023-04-24T02:13:11;2.25;;;0.80;;
72493;SDS011;60520;49.182;-0.348;2023-04-24T02:15:39;1.10;;;0.73;;
72493;SDS011;60520;49.182;-0.348;2023-04-24T02:18:06;1.75;;;1.08;;
72493;SDS011;60520;49.182;-0.348;2023-04-24T02:20:33;1.48;;;0.77;;
72493;SDS011;60520;49.182;-0.348;2023-04-24T02:23:00;1.58;;;0.85;;
72493;SDS011;60520;49.182;-0.348;2023-04-24T02:25:28;1.77;;;0.82;;
72493;SDS011;60520;49.182;-0.348;2023-04-24T02:27:55;2.83;;;0.80;;
72493;SDS011;60520;49.182;-0.348;2023-04-24T02:30:22;1.10;;;0.73;;
72493;SDS011;60520;49.182;-0.348;2023-04-24T02:32:50;1.98;;;0.80;;
72493;SDS011;60520;49.182;-0.348;2023-04-24T02:35:17;1.88;;;0.98;;
72493;SDS011;60520;49.182;-0.348;2023-04-24T02:37:45;0.90;;;0.70;;
72493;SDS011;60520;49.182;-0.348;2023-04-24T02:40:12;1.95;;;0.77;;
72493;SDS011;60520;49.182;-0.348;2023-04-24T02:42:39;1.33;;;0.65;;
72493;SDS011;60520;49.182;-0.348;2023-04-24T02:45:06;2.45;;;0.70;;
72493;SDS011;60520;49.182;-0.348;2023-04-24T02:47:34;1.55;;;0.70;;
72493;SDS011;60520;49.182;-0.348;2023-04-24T02:50:02;1.60;;;0.68;;
72493;SDS011;60520;49.182;-0.348;2023-04-24T02:52:29;2.60;;;0.93;;
72493;SDS011;60520;49.182;-0.348;2023-04-24T02:54:57;0.98;;;0.73;;
72493;SDS011;60520;49.182;-0.348;2023-04-24T02:57:24;1.85;;;0.75;;
72493;SDS011;60520;49.182;-0.348;2023-04-24T02:59:51;2.30;;;0.75;;
72493;SDS011;60520;49.182;-0.348;2023-04-24T03:02:18;1.60;;;0.75;;
72493;SDS011;60520;49.182;-0.348;2023-04-24T03:04:45;1.75;;;0.90;;
72493;SDS011;60520;49.182;-0.348;2023-04-24T03:07:14;1.55;;;0.80;;
72493;SDS011;60520;49.182;-0.348;2023-04-24T03:09:41;1.15;;;0.65;;
72493;SDS011;60520;49.182;-0.348;2023-04-24T03:12:08;1.63;;;0.90;;
72493;SDS011;60520;49.182;-0.348;2023-04-24T03:14:35;2.67;;;0.80;;
72493;SDS011;60520;49.182;-0.348;2023-04-24T03:17:03;1.27;;;0.70;;
72493;SDS011;60520;49.182;-0.348;2023-04-24T03:19:30;2.28;;;0.80;;
72493;SDS011;60520;49.182;-0.348;2023-04-24T03:21:57;2.15;;;0.90;;
72493;SDS011;60520;49.182;-0.348;2023-04-24T03:24:25;2.05;;;0.80;;
72493;SDS011;60520;49.182;-0.348;2023-04-24T03:26:53;1.00;;;0.80;;
72493;SDS011;60520;49.182;-0.348;2023-04-24T03:29:21;1.35;;;0.80;;
72493;SDS011;60520;49.182;-0.348;2023-04-24T03:31:48;1.77;;;0.77;;
72493;SDS011;60520;49.182;-0.348;2023-04-24T03:34:15;1.48;;;0.80;;
72493;SDS011;60520;49.182;-0.348;2023-04-24T03:36:42;1.00;;;0.63;;
72493;SDS011;60520;49.182;-0.348;2023-04-24T03:39:09;1.20;;;0.70;;
72493;SDS011;60520;49.182;-0.348;2023-04-24T03:41:37;1.80;;;0.70;;
72493;SDS011;60520;49.182;-0.348;2023-04-24T03:44:05;1.83;;;0.90;;
72493;SDS011;60520;49.182;-0.348;2023-04-24T03:46:32;1.95;;;0.98;;
72493;SDS011;60520;49.182;-0.348;2023-04-24T03:48:59;1.05;;;0.80;;
72493;SDS011;60520;49.182;-0.348;2023-04-24T03:51:26;2.13;;;0.75;;
72493;SDS011;60520;49.182;-0.348;2023-04-24T03:53:55;1.33;;;0.70;;
72493;SDS011;60520;49.182;-0.348;2023-04-24T03:56:22;1.90;;;1.00;;
72493;SDS011;60520;49.182;-0.348;2023-04-24T03:58:50;2.35;;;0.80;;
72493;SDS011;60520;49.182;-0.348;2023-04-24T04:01:17;1.10;;;0.55;;
72493;SDS011;60520;49.182;-0.348;2023-04-24T04:03:45;1.95;;;0.90;;
72493;SDS011;60520;49.182;-0.348;2023-04-24T04:06:12;1.73;;;0.75;;
72493;SDS011;60520;49.182;-0.348;2023-04-24T04:08:40;1.88;;;0.75;;
72493;SDS011;60520;49.182;-0.348;2023-04-24T04:11:07;2.40;;;0.85;;
72493;SDS011;60520;49.182;-0.348;2023-04-24T04:13:34;1.33;;;0.85;;
72493;SDS011;60520;49.182;-0.348;2023-04-24T04:16:02;1.90;;;0.60;;
72493;SDS011;60520;49.182;-0.348;2023-04-24T04:18:29;1.85;;;0.70;;
72493;SDS011;60520;49.182;-0.348;2023-04-24T04:20:57;2.05;;;1.00;;
72493;SDS011;60520;49.182;-0.348;2023-04-24T04:23:26;1.30;;;0.70;;
72493;SDS011;60520;49.182;-0.348;2023-04-24T04:25:53;2.55;;;0.90;;
72493;SDS011;60520;49.182;-0.348;2023-04-24T04:28:21;2.70;;;1.05;;
72493;SDS011;60520;49.182;-0.348;2023-04-24T04:30:49;2.35;;;0.90;;
72493;SDS011;60520;49.182;-0.348;2023-04-24T04:33:20;1.63;;;0.80;;
72493;SDS011;60520;49.182;-0.348;2023-04-24T04:35:47;1.48;;;0.73;;
72493;SDS011;60520;49.182;-0.348;2023-04-24T04:38:14;1.48;;;0.75;;
72493;SDS011;60520;49.182;-0.348;2023-04-24T04:40:42;3.28;;;0.93;;
72493;SDS011;60520;49.182;-0.348;2023-04-24T04:43:09;1.67;;;0.80;;
72493;SDS011;60520;49.182;-0.348;2023-04-24T04:45:38;1.33;;;0.63;;
72493;SDS011;60520;49.182;-0.348;2023-04-24T04:48:06;1.58;;;0.82;;
72493;SDS011;60520;49.182;-0.348;2023-04-24T04:50:36;2.00;;;1.10;;
72493;SDS011;60520;49.182;-0.348;2023-04-24T04:53:03;1.17;;;0.73;;
72493;SDS011;60520;49.182;-0.348;2023-04-24T04:55:31;2.15;;;0.93;;
72493;SDS011;60520;49.182;-0.348;2023-04-24T04:57:59;1.38;;;0.73;;
72493;SDS011;60520;49.182;-0.348;2023-04-24T05:00:26;1.50;;;0.93;;
72493;SDS011;60520;49.182;-0.348;2023-04-24T05:02:54;1.60;;;0.85;;
72493;SDS011;60520;49.182;-0.348;2023-04-24T05:05:21;1.65;;;0.90;;
72493;SDS011;60520;49.182;-0.348;2023-04-24T05:07:49;2.78;;;1.00;;
72493;SDS011;60520;49.182;-0.348;2023-04-24T05:10:16;2.13;;;1.00;;
72493;SDS011;60520;49.182;-0.348;2023-04-24T05:12:43;1.48;;;0.88;;
72493;SDS011;60520;49.182;-0.348;2023-04-24T05:15:10;1.35;;;0.70;;
72493;SDS011;60520;49.182;-0.348;2023-04-24T05:17:38;1.65;;;1.00;;
72493;SDS011;60520;49.182;-0.348;2023-04-24T05:20:06;1.38;;;0.90;;
72493;SDS011;60520;49.182;-0.348;2023-04-24T05:22:33;2.20;;;0.77;;
72493;SDS011;60520;49.182;-0.348;2023-04-24T05:25:02;2.40;;;0.93;;
72493;SDS011;60520;49.182;-0.348;2023-04-24T05:27:29;1.02;;;0.68;;
72493;SDS011;60520;49.182;-0.348;2023-04-24T05:29:56;2.00;;;0.80;;
72493;SDS011;60520;49.182;-0.348;2023-04-24T05:32:23;3.35;;;0.98;;
72493;SDS011;60520;49.182;-0.348;2023-04-24T05:34:52;1.08;;;0.68;;
72493;SDS011;60520;49.182;-0.348;2023-04-24T05:37:19;2.58;;;1.20;;
72493;SDS011;60520;49.182;-0.348;2023-04-24T05:39:46;2.38;;;1.00;;
72493;SDS011;60520;49.182;-0.348;2023-04-24T05:42:14;1.55;;;0.80;;
72493;SDS011;60520;49.182;-0.348;2023-04-24T05:44:41;1.55;;;0.70;;
72493;SDS011;60520;49.182;-0.348;2023-04-24T05:47:08;2.85;;;0.90;;
72493;SDS011;60520;49.182;-0.348;2023-04-24T05:49:35;1.10;;;0.80;;
72493;SDS011;60520;49.182;-0.348;2023-04-24T05:52:03;3.08;;;1.00;;
72493;SDS011;60520;49.182;-0.348;2023-04-24T05:54:31;1.92;;;0.95;;
72493;SDS011;60520;49.182;-0.348;2023-04-24T05:56:59;2.40;;;0.80;;
72493;SDS011;60520;49.182;-0.348;2023-04-24T05:59:30;1.75;;;1.00;;
72493;SDS011;60520;49.182;-0.348;2023-04-24T06:01:57;0.95;;;0.75;;
72493;SDS011;60520;49.182;-0.348;2023-04-24T06:04:25;1.70;;;0.63;;
72493;SDS011;60520;49.182;-0.348;2023-04-24T06:06:52;2.58;;;1.10;;
72493;SDS011;60520;49.182;-0.348;2023-04-24T06:09:21;3.58;;;1.00;;
72493;SDS011;60520;49.182;-0.348;2023-04-24T06:11:48;1.35;;;1.00;;
72493;SDS011;60520;49.182;-0.348;2023-04-24T06:14:17;0.80;;;0.80;;
72493;SDS011;60520;49.182;-0.348;2023-04-24T06:16:53;2.85;;;1.00;;
72493;SDS011;60520;49.182;-0.348;2023-04-24T06:19:20;1.45;;;0.80;;
72493;SDS011;60520;49.182;-0.348;2023-04-24T06:21:47;1.48;;;0.85;;
72493;SDS011;60520;49.182;-0.348;2023-04-24T06:24:14;1.75;;;0.80;;
72493;SDS011;60520;49.182;-0.348;2023-04-24T06:26:42;2.45;;;0.88;;
72493;SDS011;60520;49.182;-0.348;2023-04-24T06:29:09;4.07;;;1.00;;
72493;SDS011;60520;49.182;-0.348;2023-04-24T06:31:36;1.33;;;0.70;;
72493;SDS011;60520;49.182;-0.348;2023-04-24T06:34:05;1.17;;;0.80;;
72493;SDS011;60520;49.182;-0.348;2023-04-24T06:36:32;2.22;;;0.90;;
72493;SDS011;60520;49.182;-0.348;2023-04-24T06:39:00;1.00;;;0.80;;
72493;SDS011;60520;49.182;-0.348;2023-04-24T06:41:27;2.58;;;0.90;;
72493;SDS011;60520;49.182;-0.348;2023-04-24T06:43:55;2.65;;;0.95;;
72493;SDS011;60520;49.182;-0.348;2023-04-24T06:46:22;1.65;;;1.00;;
72493;SDS011;60520;49.182;-0.348;2023-04-24T06:48:51;2.65;;;0.88;;
72493;SDS011;60520;49.182;-0.348;2023-04-24T06:51:21;1.67;;;1.00;;
72493;SDS011;60520;49.182;-0.348;2023-04-24T06:53:50;2.58;;;0.90;;
72493;SDS011;60520;49.182;-0.348;2023-04-24T06:56:18;1.83;;;0.85;;
72493;SDS011;60520;49.182;-0.348;2023-04-24T06:58:45;2.70;;;0.90;;
72493;SDS011;60520;49.182;-0.348;2023-04-24T07:01:12;1.95;;;0.75;;
72493;SDS011;60520;49.182;-0.348;2023-04-24T07:03:39;1.92;;;0.82;;
72493;SDS011;60520;49.182;-0.348;2023-04-24T07:06:07;19.35;;;2.15;;
72493;SDS011;60520;49.182;-0.348;2023-04-24T07:08:36;55.58;;;3.30;;
72493;SDS011;60520;49.182;-0.348;2023-04-24T07:11:03;19.48;;;1.98;;
72493;SDS011;60520;49.182;-0.348;2023-04-24T07:13:30;14.55;;;1.88;;
72493;SDS011;60520;49.182;-0.348;2023-04-24T07:16:00;15.80;;;1.90;;
72493;SDS011;60520;49.182;-0.348;2023-04-24T07:18:27;13.23;;;2.15;;
72493;SDS011;60520;49.182;-0.348;2023-04-24T07:20:54;19.83;;;1.73;;
72493;SDS011;60520;49.182;-0.348;2023-04-24T07:23:21;11.57;;;1.58;;
72493;SDS011;60520;49.182;-0.348;2023-04-24T07:25:50;14.75;;;1.75;;
72493;SDS011;60520;49.182;-0.348;2023-04-24T07:28:17;11.70;;;1.73;;
72493;SDS011;60520;49.182;-0.348;2023-04-24T07:30:44;10.63;;;1.48;;
72493;SDS011;60520;49.182;-0.348;2023-04-24T07:33:11;13.80;;;1.60;;
72493;SDS011;60520;49.182;-0.348;2023-04-24T07:35:38;12.88;;;1.40;;
72493;SDS011;60520;49.182;-0.348;2023-04-24T07:38:06;11.50;;;1.20;;
72493;SDS011;60520;49.182;-0.348;2023-04-24T07:40:33;8.55;;;1.80;;
72493;SDS011;60520;49.182;-0.348;2023-04-24T07:43:01;19.98;;;1.35;;
72493;SDS011;60520;49.182;-0.348;2023-04-24T07:45:28;7.22;;;1.30;;
72493;SDS011;60520;49.182;-0.348;2023-04-24T07:47:56;9.35;;;1.40;;
72493;SDS011;60520;49.182;-0.348;2023-04-24T07:50:23;13.98;;;1.70;;
72493;SDS011;60520;49.182;-0.348;2023-04-24T07:52:50;9.00;;;1.00;;
72493;SDS011;60520;49.182;-0.348;2023-04-24T07:55:17;6.63;;;1.45;;
72493;SDS011;60520;49.182;-0.348;2023-04-24T07:57:44;7.95;;;1.27;;
72493;SDS011;60520;49.182;-0.348;2023-04-24T08:00:13;8.82;;;1.17;;
72493;SDS011;60520;49.182;-0.348;2023-04-24T08:02:40;9.07;;;1.40;;
72493;SDS011;60520;49.182;-0.348;2023-04-24T08:05:08;8.75;;;1.30;;
72493;SDS011;60520;49.182;-0.348;2023-04-24T08:07:35;6.82;;;1.40;;
72493;SDS011;60520;49.182;-0.348;2023-04-24T08:10:02;5.88;;;1.40;;
72493;SDS011;60520;49.182;-0.348;2023-04-24T08:12:30;9.35;;;1.60;;
72493;SDS011;60520;49.182;-0.348;2023-04-24T08:14:57;5.18;;;1.40;;
72493;SDS011;60520;49.182;-0.348;2023-04-24T08:17:25;11.43;;;1.30;;
72493;SDS011;60520;49.182;-0.348;2023-04-24T08:19:52;11.60;;;1.20;;
72493;SDS011;60520;49.182;-0.348;2023-04-24T08:22:26;8.50;;;1.30;;
72493;SDS011;60520;49.182;-0.348;2023-04-24T08:24:53;4.63;;;1.20;;
72493;SDS011;60520;49.182;-0.348;2023-04-24T08:27:21;6.47;;;1.23;;
72493;SDS011;60520;49.182;-0.348;2023-04-24T08:29:48;9.55;;;1.23;;
72493;SDS011;60520;49.182;-0.348;2023-04-24T08:32:15;6.25;;;1.40;;
72493;SDS011;60520;49.182;-0.348;2023-04-24T08:34:43;4.25;;;1.10;;
72493;SDS011;60520;49.182;-0.348;2023-04-24T08:37:10;5.03;;;0.98;;
72493;SDS011;60520;49.182;-0.348;2023-04-24T08:39:38;5.70;;;1.55;;
72493;SDS011;60520;49.182;-0.348;2023-04-24T08:42:05;7.68;;;1.20;;
72493;SDS011;60520;49.182;-0.348;2023-04-24T08:44:33;5.10;;;1.10;;
72493;SDS011;60520;49.182;-0.348;2023-04-24T08:47:01;3.00;;;1.02;;
72493;SDS011;60520;49.182;-0.348;2023-04-24T08:49:29;6.25;;;1.23;;
72493;SDS011;60520;49.182;-0.348;2023-04-24T08:51:57;5.07;;;0.95;;
72493;SDS011;60520;49.182;-0.348;2023-04-24T08:54:25;2.80;;;1.10;;
72493;SDS011;60520;49.182;-0.348;2023-04-24T08:56:53;3.35;;;1.30;;
72493;SDS011;60520;49.182;-0.348;2023-04-24T08:59:21;3.75;;;1.17;;
72493;SDS011;60520;49.182;-0.348;2023-04-24T09:01:49;3.28;;;1.00;;
72493;SDS011;60520;49.182;-0.348;2023-04-24T09:04:18;5.05;;;1.00;;
72493;SDS011;60520;49.182;-0.348;2023-04-24T09:06:47;4.80;;;1.20;;
72493;SDS011;60520;49.182;-0.348;2023-04-24T09:09:16;5.47;;;0.95;;
72493;SDS011;60520;49.182;-0.348;2023-04-24T09:11:44;4.22;;;1.00;;
72493;SDS011;60520;49.182;-0.348;2023-04-24T09:14:11;3.38;;;1.25;;
72493;SDS011;60520;49.182;-0.348;2023-04-24T09:16:39;5.60;;;0.98;;
72493;SDS011;60520;49.182;-0.348;2023-04-24T09:19:06;3.63;;;1.13;;
72493;SDS011;60520;49.182;-0.348;2023-04-24T09:21:34;2.95;;;1.00;;
72493;SDS011;60520;49.182;-0.348;2023-04-24T09:24:04;3.92;;;0.90;;
72493;SDS011;60520;49.182;-0.348;2023-04-24T09:26:34;2.33;;;0.70;;
72493;SDS011;60520;49.182;-0.348;2023-04-24T09:29:02;3.22;;;0.90;;
72493;SDS011;60520;49.182;-0.348;2023-04-24T09:31:30;6.40;;;1.05;;
72493;SDS011;60520;49.182;-0.348;2023-04-24T09:33:58;1.98;;;1.00;;
72493;SDS011;60520;49.182;-0.348;2023-04-24T09:36:29;3.95;;;0.90;;
72493;SDS011;60520;49.182;-0.348;2023-04-24T09:38:58;4.63;;;1.20;;
72493;SDS011;60520;49.182;-0.348;2023-04-24T09:41:25;4.78;;;1.00;;
72493;SDS011;60520;49.182;-0.348;2023-04-24T09:43:55;1.20;;;0.63;;
72493;SDS011;60520;49.182;-0.348;2023-04-24T09:46:29;2.47;;;0.80;;
72493;SDS011;60520;49.182;-0.348;2023-04-24T09:48:56;6.18;;;1.05;;
72493;SDS011;60520;49.182;-0.348;2023-04-24T09:51:33;1.65;;;0.80;;
72493;SDS011;60520;49.182;-0.348;2023-04-24T09:54:00;2.90;;;1.05;;
72493;SDS011;60520;49.182;-0.348;2023-04-24T09:56:28;3.60;;;0.90;;
72493;SDS011;60520;49.182;-0.348;2023-04-24T09:59:05;3.83;;;0.88;;
72493;SDS011;60520;49.182;-0.348;2023-04-24T10:01:32;2.22;;;0.90;;
72493;SDS011;60520;49.182;-0.348;2023-04-24T10:03:59;1.67;;;0.85;;
72493;SDS011;60520;49.182;-0.348;2023-04-24T10:06:31;2.95;;;0.90;;
72493;SDS011;60520;49.182;-0.348;2023-04-24T10:08:58;3.00;;;0.90;;
72493;SDS011;60520;49.182;-0.348;2023-04-24T10:11:25;4.25;;;0.90;;
72493;SDS011;60520;49.182;-0.348;2023-04-24T10:13:53;1.50;;;0.80;;
72493;SDS011;60520;49.182;-0.348;2023-04-24T10:16:22;1.92;;;0.63;;
72493;SDS011;60520;49.182;-0.348;2023-04-24T10:18:49;1.63;;;0.77;;
72493;SDS011;60520;49.182;-0.348;2023-04-24T10:21:17;5.18;;;1.05;;
72493;SDS011;60520;49.182;-0.348;2023-04-24T10:23:44;2.17;;;0.90;;
72493;SDS011;60520;49.182;-0.348;2023-04-24T10:26:12;1.95;;;0.70;;
72493;SDS011;60520;49.182;-0.348;2023-04-24T10:28:42;3.42;;;0.90;;
72493;SDS011;60520;49.182;-0.348;2023-04-24T10:31:11;4.25;;;0.88;;
72493;SDS011;60520;49.182;-0.348;2023-04-24T10:33:40;1.83;;;0.70;;
72493;SDS011;60520;49.182;-0.348;2023-04-24T10:36:08;1.13;;;0.70;;
72493;SDS011;60520;49.182;-0.348;2023-04-24T10:38:36;2.92;;;0.90;;
72493;SDS011;60520;49.182;-0.348;2023-04-24T10:41:08;4.15;;;1.00;;
72493;SDS011;60520;49.182;-0.348;2023-04-24T10:43:40;1.05;;;0.70;;
72493;SDS011;60520;49.182;-0.348;2023-04-24T10:46:08;2.13;;;0.85;;
72493;SDS011;60520;49.182;-0.348;2023-04-24T10:48:36;2.45;;;0.82;;
72493;SDS011;60520;49.182;-0.348;2023-04-24T10:51:12;1.98;;;0.60;;
72493;SDS011;60520;49.182;-0.348;2023-04-24T10:53:39;1.45;;;0.75;;
72493;SDS011;60520;49.182;-0.348;2023-04-24T10:56:07;2.85;;;0.68;;
72493;SDS011;60520;49.182;-0.348;2023-04-24T10:58:36;1.95;;;0.90;;
72493;SDS011;60520;49.182;-0.348;2023-04-24T11:01:03;1.38;;;0.80;;
72493;SDS011;60520;49.182;-0.348;2023-04-24T11:03:31;2.05;;;0.80;;
72493;SDS011;60520;49.182;-0.348;2023-04-24T11:06:00;2.10;;;0.98;;
72493;SDS011;60520;49.182;-0.348;2023-04-24T11:08:32;1.85;;;1.00;;
72493;SDS011;60520;49.182;-0.348;2023-04-24T11:11:03;2.17;;;0.80;;
72493;SDS011;60520;49.182;-0.348;2023-04-24T11:16:20;1.50;;;0.60;;
72493;SDS011;60520;49.182;-0.348;2023-04-24T11:18:50;2.75;;;0.80;;
72493;SDS011;60520;49.182;-0.348;2023-04-24T11:21:19;1.40;;;0.80;;
72493;SDS011;60520;49.182;-0.348;2023-04-24T11:23:48;2.20;;;0.73;;
72493;SDS011;60520;49.182;-0.348;2023-04-24T11:26:17;1.80;;;0.70;;
72493;SDS011;60520;49.182;-0.348;2023-04-24T11:28:45;2.05;;;0.70;;
72493;SDS011;60520;49.182;-0.348;2023-04-24T11:34:02;1.23;;;0.70;;
72493;SDS011;60520;49.182;-0.348;2023-04-24T11:36:33;3.60;;;0.70;;
72493;SDS011;60520;49.182;-0.348;2023-04-24T11:39:02;0.90;;;0.68;;
72493;SDS011;60520;49.182;-0.348;2023-04-24T11:41:29;2.03;;;0.82;;
72493;SDS011;60520;49.182;-0.348;2023-04-24T11:43:57;1.80;;;0.70;;
72493;SDS011;60520;49.182;-0.348;2023-04-24T11:46:26;1.00;;;0.75;;
72493;SDS011;60520;49.182;-0.348;2023-04-24T11:48:53;2.00;;;0.75;;
72493;SDS011;60520;49.182;-0.348;2023-04-24T11:51:21;1.17;;;0.70;;
72493;SDS011;60520;49.182;-0.348;2023-04-24T11:53:49;2.08;;;0.90;;
72493;SDS011;60520;49.182;-0.348;2023-04-24T11:56:18;1.00;;;0.70;;
72493;SDS011;60520;49.182;-0.348;2023-04-24T11:58:45;1.10;;;0.90;;
72493;SDS011;60520;49.182;-0.348;2023-04-24T12:01:12;0.75;;;0.50;;
72493;SDS011;60520;49.182;-0.348;2023-04-24T12:03:40;1.38;;;0.73;;
72493;SDS011;60520;49.182;-0.348;2023-04-24T12:06:09;3.00;;;0.80;;
72493;SDS011;60520;49.182;-0.348;2023-04-24T12:08:37;1.17;;;0.70;;
72493;SDS011;60520;49.182;-0.348;2023-04-24T12:11:05;3.17;;;0.98;;
72493;SDS011;60520;49.182;-0.348;2023-04-24T12:13:34;1.60;;;0.70;;
72493;SDS011;60520;49.182;-0.348;2023-04-24T12:16:03;1.17;;;0.73;;
72493;SDS011;60520;49.182;-0.348;2023-04-24T12:18:30;2.60;;;0.57;;
72493;SDS011;60520;49.182;-0.348;2023-04-24T12:23:42;1.02;;;0.57;;
72493;SDS011;60520;49.182;-0.348;2023-04-24T12:26:09;1.20;;;0.63;;
72493;SDS011;60520;49.182;-0.348;2023-04-24T12:28:38;0.85;;;0.63;;
72493;SDS011;60520;49.182;-0.348;2023-04-24T12:31:06;1.08;;;0.70;;
72493;SDS011;60520;49.182;-0.348;2023-04-24T12:33:33;0.70;;;0.60;;
72493;SDS011;60520;49.182;-0.348;2023-04-24T12:36:01;1.08;;;0.70;;
72493;SDS011;60520;49.182;-0.348;2023-04-24T12:38:28;1.73;;;0.77;;
72493;SDS011;60520;49.182;-0.348;2023-04-24T12:41:02;1.15;;;0.63;;
72493;SDS011;60520;49.182;-0.348;2023-04-24T12:43:30;0.80;;;0.60;;
72493;SDS011;60520;49.182;-0.348;2023-04-24T12:45:58;1.65;;;0.85;;
72493;SDS011;60520;49.182;-0.348;2023-04-24T12:48:26;1.20;;;0.68;;
72493;SDS011;60520;49.182;-0.348;2023-04-24T12:50:53;2.50;;;0.80;;
72493;SDS011;60520;49.182;-0.348;2023-04-24T12:53:21;1.30;;;0.70;;
72493;SDS011;60520;49.182;-0.348;2023-04-24T12:55:51;1.13;;;0.70;;
72493;SDS011;60520;49.182;-0.348;2023-04-24T12:58:19;1.02;;;0.60;;
72493;SDS011;60520;49.182;-0.348;2023-04-24T13:00:46;1.40;;;0.70;;
72493;SDS011;60520;49.182;-0.348;2023-04-24T13:03:14;1.48;;;0.73;;
72493;SDS011;60520;49.182;-0.348;2023-04-24T13:05:42;1.63;;;0.70;;
72493;SDS011;60520;49.182;-0.348;2023-04-24T13:08:09;0.80;;;0.60;;
72493;SDS011;60520;49.182;-0.348;2023-04-24T13:10:37;1.15;;;0.77;;
72493;SDS011;60520;49.182;-0.348;2023-04-24T13:13:05;1.52;;;0.68;;
72493;SDS011;60520;49.182;-0.348;2023-04-24T13:15:33;0.93;;;0.60;;
72493;SDS011;60520;49.182;-0.348;2023-04-24T13:18:00;1.50;;;0.60;;
72493;SDS011;60520;49.182;-0.348;2023-04-24T13:20:29;1.52;;;0.50;;
72493;SDS011;60520;49.182;-0.348;2023-04-24T13:22:56;0.70;;;0.52;;
72493;SDS011;60520;49.182;-0.348;2023-04-24T13:25:23;0.80;;;0.57;;
72493;SDS011;60520;49.182;-0.348;2023-04-24T13:27:50;1.13;;;0.63;;
72493;SDS011;60520;49.182;-0.348;2023-04-24T13:30:17;1.02;;;0.65;;
72493;SDS011;60520;49.182;-0.348;2023-04-24T13:32:44;1.48;;;0.80;;
72493;SDS011;60520;49.182;-0.348;2023-04-24T13:35:11;0.70;;;0.60;;
72493;SDS011;60520;49.182;-0.348;2023-04-24T13:37:40;1.42;;;0.77;;
72493;SDS011;60520;49.182;-0.348;2023-04-24T13:40:07;1.50;;;0.60;;
72493;SDS011;60520;49.182;-0.348;2023-04-24T13:42:34;0.95;;;0.57;;
72493;SDS011;60520;49.182;-0.348;2023-04-24T13:45:02;0.95;;;0.50;;
72493;SDS011;60520;49.182;-0.348;2023-04-24T13:47:29;1.88;;;0.50;;
72493;SDS011;60520;49.182;-0.348;2023-04-24T13:49:56;1.20;;;0.60;;
72493;SDS011;60520;49.182;-0.348;2023-04-24T13:52:23;0.77;;;0.50;;
72493;SDS011;60520;49.182;-0.348;2023-04-24T13:54:52;0.70;;;0.60;;
72493;SDS011;60520;49.182;-0.348;2023-04-24T13:57:20;0.80;;;0.55;;
72493;SDS011;60520;49.182;-0.348;2023-04-24T13:59:47;0.90;;;0.55;;
72493;SDS011;60520;49.182;-0.348;2023-04-24T14:02:14;1.08;;;0.80;;
72493;SDS011;60520;49.182;-0.348;2023-04-24T14:04:41;1.08;;;0.60;;
72493;SDS011;60520;49.182;-0.348;2023-04-24T14:07:08;0.68;;;0.50;;
72493;SDS011;60520;49.182;-0.348;2023-04-24T14:09:35;0.60;;;0.50;;
72493;SDS011;60520;49.182;-0.348;2023-04-24T14:12:04;2.25;;;0.50;;
72493;SDS011;60520;49.182;-0.348;2023-04-24T14:14:32;0.73;;;0.52;;
72493;SDS011;60520;49.182;-0.348;2023-04-24T14:16:59;1.02;;;0.60;;
72493;SDS011;60520;49.182;-0.348;2023-04-24T14:19:26;0.77;;;0.60;;
72493;SDS011;60520;49.182;-0.348;2023-04-24T14:21:53;0.60;;;0.55;;
72493;SDS011;60520;49.182;-0.348;2023-04-24T14:24:21;0.73;;;0.50;;
72493;SDS011;60520;49.182;-0.348;2023-04-24T14:26:48;0.88;;;0.50;;
72493;SDS011;60520;49.182;-0.348;2023-04-24T14:29:17;1.23;;;0.52;;
72493;SDS011;60520;49.182;-0.348;2023-04-24T14:31:44;1.73;;;0.75;;
72493;SDS011;60520;49.182;-0.348;2023-04-24T14:34:12;0.90;;;0.60;;
72493;SDS011;60520;49.182;-0.348;2023-04-24T14:36:40;0.65;;;0.50;;
72493;SDS011;60520;49.182;-0.348;2023-04-24T14:39:07;0.68;;;0.50;;
72493;SDS011;60520;49.182;-0.348;2023-04-24T14:41:35;1.00;;;0.60;;
72493;SDS011;60520;49.182;-0.348;2023-04-24T14:44:04;1.42;;;0.50;;